sensor_id;sensor_type;location;lat;lon;timestamp;pressure;altitude;pressure_sealevel;temperature;humidity
7768;BME280;3928;42.626;23.382;2023-07-09T00:00:53;94596.31;;;23.14;49.32
7768;BME280;3928;42.626;23.382;2023-07-09T00:03:20;94593.41;;;23.04;48.47
7768;BME280;3928;42.626;23.382;2023-07-09T00:05:48;94586.38;;;23.04;48.37
7768;BME280;3928;42.626;23.382;2023-07-09T00:08:25;94588.75;;;23.09;49.41
7768;BME280;3928;42.626;23.382;2023-07-09T00:10:53;94589.09;;;23.03;50.67
7768;BME280;3928;42.626;23.382;2023-07-09T00:13:20;94588.91;;;22.92;49.06
7768;BME280;3928;42.626;23.382;2023-07-09T00:15:47;94584.81;;;22.88;48.27
7768;BME280;3928;42.626;23.382;2023-07-09T00:18:14;94576.47;;;22.95;48.46
7768;BME280;3928;42.626;23.382;2023-07-09T00:20:41;94562.09;;;22.88;48.99
7768;BME280;3928;42.626;23.382;2023-07-09T00:23:09;94572.56;;;22.88;48.83
7768;BME280;3928;42.626;23.382;2023-07-09T00:25:40;94543.63;;;22.75;49.14
7768;BME280;3928;42.626;23.382;2023-07-09T00:28:12;94570.44;;;22.79;48.06
7768;BME280;3928;42.626;23.382;2023-07-09T00:30:40;94564.53;;;22.61;49.19
7768;BME280;3928;42.626;23.382;2023-07-09T00:33:10;94569.19;;;22.56;49.43
7768;BME280;3928;42.626;23.382;2023-07-09T00:35:40;94553.66;;;22.39;49.13
7768;BME280;3928;42.626;23.382;2023-07-09T00:38:13;94571.06;;;22.54;49.31
7768;BME280;3928;42.626;23.382;2023-07-09T00:40:47;94555.88;;;22.31;49.37
7768;BME280;3928;42.626;23.382;2023-07-09T00:43:16;94569.19;;;22.42;49.59
7768;BME280;3928;42.626;23.382;2023-07-09T00:45:43;94567.59;;;22.39;49.40
7768;BME280;3928;42.626;23.382;2023-07-09T00:48:13;94567.63;;;22.24;49.74
7768;BME280;3928;42.626;23.382;2023-07-09T00:50:44;94565.22;;;22.35;49.59
7768;BME280;3928;42.626;23.382;2023-07-09T00:53:15;94558.09;;;22.23;49.36
7768;BME280;3928;42.626;23.382;2023-07-09T00:55:48;94550.63;;;22.16;49.98
7768;BME280;3928;42.626;23.382;2023-07-09T00:58:17;94553.97;;;22.18;49.75
7768;BME280;3928;42.626;23.382;2023-07-09T01:00:47;94550.34;;;22.21;49.35
7768;BME280;3928;42.626;23.382;2023-07-09T01:03:24;94556.63;;;22.33;49.68
7768;BME280;3928;42.626;23.382;2023-07-09T01:05:56;94556.44;;;22.36;50.54
7768;BME280;3928;42.626;23.382;2023-07-09T01:08:24;94534.38;;;22.26;49.71
7768;BME280;3928;42.626;23.382;2023-07-09T01:10:57;94560.94;;;22.48;49.38
7768;BME280;3928;42.626;23.382;2023-07-09T01:13:25;94557.56;;;22.62;48.98
7768;BME280;3928;42.626;23.382;2023-07-09T01:15:53;94562.22;;;22.71;47.92
7768;BME280;3928;42.626;23.382;2023-07-09T01:18:21;94551.19;;;22.80;48.60
7768;BME280;3928;42.626;23.382;2023-07-09T01:20:50;94555.81;;;22.91;49.85
7768;BME280;3928;42.626;23.382;2023-07-09T01:23:20;94540.94;;;22.91;48.19
7768;BME280;3928;42.626;23.382;2023-07-09T01:25:51;94555.81;;;23.05;48.14
7768;BME280;3928;42.626;23.382;2023-07-09T01:28:20;94549.84;;;23.03;47.45
7768;BME280;3928;42.626;23.382;2023-07-09T01:30:47;94550.22;;;23.11;46.83
7768;BME280;3928;42.626;23.382;2023-07-09T01:33:20;94543.47;;;23.07;47.10
7768;BME280;3928;42.626;23.382;2023-07-09T01:35:47;94542.63;;;23.07;45.98
7768;BME280;3928;42.626;23.382;2023-07-09T01:38:14;94551.34;;;23.21;49.85
7768;BME280;3928;42.626;23.382;2023-07-09T01:40:43;94541.28;;;23.28;49.58
7768;BME280;3928;42.626;23.382;2023-07-09T01:43:11;94549.97;;;23.43;49.24
7768;BME280;3928;42.626;23.382;2023-07-09T01:45:38;94559.03;;;23.51;48.77
7768;BME280;3928;42.626;23.382;2023-07-09T01:48:07;94556.09;;;23.56;47.75
7768;BME280;3928;42.626;23.382;2023-07-09T01:50:41;94556.91;;;23.58;49.09
7768;BME280;3928;42.626;23.382;2023-07-09T01:53:09;94567.19;;;23.61;49.16
7768;BME280;3928;42.626;23.382;2023-07-09T01:55:36;94570.09;;;23.56;49.70
7768;BME280;3928;42.626;23.382;2023-07-09T01:58:04;94562.06;;;23.45;49.84
7768;BME280;3928;42.626;23.382;2023-07-09T02:00:32;94574.97;;;23.34;50.80
7768;BME280;3928;42.626;23.382;2023-07-09T02:03:00;94567.69;;;23.25;50.04
7768;BME280;3928;42.626;23.382;2023-07-09T02:05:30;94568.03;;;23.19;50.84
7768;BME280;3928;42.626;23.382;2023-07-09T02:07:57;94574.53;;;23.13;51.45
7768;BME280;3928;42.626;23.382;2023-07-09T02:10:24;94562.09;;;23.02;51.11
7768;BME280;3928;42.626;23.382;2023-07-09T02:12:51;94576.94;;;23.02;53.01
7768;BME280;3928;42.626;23.382;2023-07-09T02:15:19;94567.59;;;22.98;52.68
7768;BME280;3928;42.626;23.382;2023-07-09T02:17:46;94574.69;;;22.96;51.96
7768;BME280;3928;42.626;23.382;2023-07-09T02:20:13;94578.72;;;23.01;52.16
7768;BME280;3928;42.626;23.382;2023-07-09T02:22:41;94572.84;;;22.98;52.66
7768;BME280;3928;42.626;23.382;2023-07-09T02:25:08;94579.19;;;22.94;53.25
7768;BME280;3928;42.626;23.382;2023-07-09T02:27:36;94583.75;;;22.90;51.84
7768;BME280;3928;42.626;23.382;2023-07-09T02:30:04;94583.44;;;22.81;51.43
7768;BME280;3928;42.626;23.382;2023-07-09T02:32:33;94583.22;;;22.55;53.83
7768;BME280;3928;42.626;23.382;2023-07-09T02:34:59;94594.03;;;22.49;54.79
7768;BME280;3928;42.626;23.382;2023-07-09T02:37:26;94592.53;;;22.45;54.36
7768;BME280;3928;42.626;23.382;2023-07-09T02:39:53;94547.06;;;22.17;55.31
7768;BME280;3928;42.626;23.382;2023-07-09T02:42:21;94589.16;;;22.43;55.30
7768;BME280;3928;42.626;23.382;2023-07-09T02:44:49;94576.91;;;22.13;55.20
7768;BME280;3928;42.626;23.382;2023-07-09T02:47:17;94599.00;;;22.24;55.50
7768;BME280;3928;42.626;23.382;2023-07-09T02:49:45;94601.97;;;22.17;56.96
7768;BME280;3928;42.626;23.382;2023-07-09T02:52:12;94599.53;;;22.14;56.01
7768;BME280;3928;42.626;23.382;2023-07-09T02:54:39;94602.16;;;22.14;56.83
7768;BME280;3928;42.626;23.382;2023-07-09T02:57:06;94601.03;;;22.18;56.74
7768;BME280;3928;42.626;23.382;2023-07-09T02:59:33;94597.06;;;22.11;55.87
7768;BME280;3928;42.626;23.382;2023-07-09T03:02:01;94612.75;;;21.96;55.69
7768;BME280;3928;42.626;23.382;2023-07-09T03:04:28;94612.50;;;21.84;55.48
7768;BME280;3928;42.626;23.382;2023-07-09T03:06:58;94603.94;;;21.67;56.98
7768;BME280;3928;42.626;23.382;2023-07-09T03:09:25;94612.34;;;21.56;57.44
7768;BME280;3928;42.626;23.382;2023-07-09T03:11:52;94616.56;;;21.58;58.54
7768;BME280;3928;42.626;23.382;2023-07-09T03:14:19;94617.00;;;21.67;56.77
7768;BME280;3928;42.626;23.382;2023-07-09T03:16:46;94614.72;;;21.60;56.83
7768;BME280;3928;42.626;23.382;2023-07-09T03:19:12;94617.41;;;21.59;55.40
7768;BME280;3928;42.626;23.382;2023-07-09T03:21:39;94585.38;;;21.40;58.18
7768;BME280;3928;42.626;23.382;2023-07-09T03:24:07;94618.81;;;21.65;56.31
7768;BME280;3928;42.626;23.382;2023-07-09T03:26:34;94616.22;;;21.65;58.07
7768;BME280;3928;42.626;23.382;2023-07-09T03:29:02;94619.00;;;21.77;57.77
7768;BME280;3928;42.626;23.382;2023-07-09T03:31:29;94621.94;;;21.87;57.65
7768;BME280;3928;42.626;23.382;2023-07-09T03:34:00;94612.19;;;21.91;56.25
7768;BME280;3928;42.626;23.382;2023-07-09T03:36:28;94570.72;;;21.69;54.37
7768;BME280;3928;42.626;23.382;2023-07-09T03:38:55;94617.72;;;22.00;55.37
7768;BME280;3928;42.626;23.382;2023-07-09T03:41:23;94620.78;;;21.93;53.93
7768;BME280;3928;42.626;23.382;2023-07-09T03:43:50;94619.25;;;21.88;54.32
7768;BME280;3928;42.626;23.382;2023-07-09T03:46:19;94623.53;;;21.89;55.76
7768;BME280;3928;42.626;23.382;2023-07-09T03:48:46;94623.88;;;21.99;55.46
7768;BME280;3928;42.626;23.382;2023-07-09T03:51:12;94625.75;;;21.97;55.45
7768;BME280;3928;42.626;23.382;2023-07-09T03:53:39;94627.03;;;22.06;56.17
7768;BME280;3928;42.626;23.382;2023-07-09T03:56:06;94627.88;;;22.06;53.80
7768;BME280;3928;42.626;23.382;2023-07-09T03:58:35;94625.91;;;21.94;54.47
7768;BME280;3928;42.626;23.382;2023-07-09T04:01:01;94628.09;;;21.86;54.65
7768;BME280;3928;42.626;23.382;2023-07-09T04:03:28;94633.00;;;21.92;56.13
7768;BME280;3928;42.626;23.382;2023-07-09T04:05:55;94628.03;;;22.03;56.75
7768;BME280;3928;42.626;23.382;2023-07-09T04:08:22;94627.50;;;21.97;55.73
7768;BME280;3928;42.626;23.382;2023-07-09T04:10:52;94632.75;;;21.81;56.74
7768;BME280;3928;42.626;23.382;2023-07-09T04:13:19;94626.50;;;21.83;56.04
7768;BME280;3928;42.626;23.382;2023-07-09T04:15:48;94642.19;;;21.83;57.33
7768;BME280;3928;42.626;23.382;2023-07-09T04:18:15;94631.91;;;21.80;57.84
7768;BME280;3928;42.626;23.382;2023-07-09T04:20:42;94639.41;;;21.86;56.67
7768;BME280;3928;42.626;23.382;2023-07-09T04:23:09;94641.41;;;21.97;57.99
7768;BME280;3928;42.626;23.382;2023-07-09T04:25:37;94646.00;;;22.09;58.00
7768;BME280;3928;42.626;23.382;2023-07-09T04:28:05;94641.19;;;22.17;58.75
7768;BME280;3928;42.626;23.382;2023-07-09T04:30:31;94639.97;;;22.39;58.93
7768;BME280;3928;42.626;23.382;2023-07-09T04:33:00;94644.50;;;22.51;58.83
7768;BME280;3928;42.626;23.382;2023-07-09T04:35:27;94646.75;;;22.57;58.01
7768;BME280;3928;42.626;23.382;2023-07-09T04:37:53;94652.38;;;22.65;57.63
7768;BME280;3928;42.626;23.382;2023-07-09T04:40:20;94655.31;;;22.75;57.53
7768;BME280;3928;42.626;23.382;2023-07-09T04:42:47;94654.47;;;22.74;56.99
7768;BME280;3928;42.626;23.382;2023-07-09T04:45:14;94657.09;;;22.74;56.99
7768;BME280;3928;42.626;23.382;2023-07-09T04:47:40;94656.09;;;22.61;56.43
7768;BME280;3928;42.626;23.382;2023-07-09T04:50:11;94659.28;;;22.66;57.03
7768;BME280;3928;42.626;23.382;2023-07-09T04:52:39;94658.44;;;22.66;55.94
7768;BME280;3928;42.626;23.382;2023-07-09T04:55:06;94649.03;;;22.63;56.74
7768;BME280;3928;42.626;23.382;2023-07-09T04:57:34;94644.63;;;22.64;58.12
7768;BME280;3928;42.626;23.382;2023-07-09T06:48:22;94654.84;;;24.92;48.58
7768;BME280;3928;42.626;23.382;2023-07-09T06:50:50;94649.75;;;25.16;47.27
7768;BME280;3928;42.626;23.382;2023-07-09T06:53:16;94649.31;;;25.22;46.62
7768;BME280;3928;42.626;23.382;2023-07-09T06:55:43;94645.94;;;25.20;46.51
7768;BME280;3928;42.626;23.382;2023-07-09T06:58:10;94643.97;;;25.36;47.83
7768;BME280;3928;42.626;23.382;2023-07-09T07:00:37;94644.06;;;25.47;46.74
7768;BME280;3928;42.626;23.382;2023-07-09T07:03:05;94655.28;;;25.62;45.95
7768;BME280;3928;42.626;23.382;2023-07-09T07:05:33;94639.63;;;25.60;45.81
7768;BME280;3928;42.626;23.382;2023-07-09T07:08:01;94648.75;;;25.80;45.42
7768;BME280;3928;42.626;23.382;2023-07-09T07:10:28;94651.69;;;25.88;44.35
7768;BME280;3928;42.626;23.382;2023-07-09T07:12:55;94660.94;;;25.94;44.38
7768;BME280;3928;42.626;23.382;2023-07-09T07:15:22;94657.56;;;25.92;43.95
7768;BME280;3928;42.626;23.382;2023-07-09T07:17:49;94655.00;;;26.03;45.38
7768;BME280;3928;42.626;23.382;2023-07-09T07:20:16;94648.44;;;26.21;45.73
7768;BME280;3928;42.626;23.382;2023-07-09T07:22:46;94645.44;;;26.39;45.00
7768;BME280;3928;42.626;23.382;2023-07-09T07:25:13;94647.41;;;26.48;44.36
7768;BME280;3928;42.626;23.382;2023-07-09T07:27:39;94633.16;;;26.50;43.63
7768;BME280;3928;42.626;23.382;2023-07-09T07:30:08;94644.16;;;26.68;44.15
7768;BME280;3928;42.626;23.382;2023-07-09T07:32:36;94640.56;;;26.69;43.81
7768;BME280;3928;42.626;23.382;2023-07-09T07:35:04;94645.59;;;26.72;43.33
7768;BME280;3928;42.626;23.382;2023-07-09T07:37:31;94633.25;;;26.73;41.74
7768;BME280;3928;42.626;23.382;2023-07-09T07:39:59;94634.84;;;26.87;41.99
7768;BME280;3928;42.626;23.382;2023-07-09T07:42:25;94639.03;;;27.02;42.31
7768;BME280;3928;42.626;23.382;2023-07-09T07:44:52;94635.94;;;27.19;42.34
7768;BME280;3928;42.626;23.382;2023-07-09T07:47:19;94635.94;;;27.19;41.75
7768;BME280;3928;42.626;23.382;2023-07-09T07:49:46;94635.94;;;27.42;41.97
7768;BME280;3928;42.626;23.382;2023-07-09T07:52:13;94637.66;;;27.65;41.72
7768;BME280;3928;42.626;23.382;2023-07-09T07:54:40;94631.19;;;27.80;40.80
7768;BME280;3928;42.626;23.382;2023-07-09T07:57:08;94639.31;;;28.00;39.91
7768;BME280;3928;42.626;23.382;2023-07-09T07:59:36;94645.78;;;28.18;40.33
7768;BME280;3928;42.626;23.382;2023-07-09T08:02:04;94646.72;;;28.28;38.77
7768;BME280;3928;42.626;23.382;2023-07-09T08:04:31;94634.75;;;28.02;38.20
7768;BME280;3928;42.626;23.382;2023-07-09T08:06:58;94628.19;;;27.85;38.71
7768;BME280;3928;42.626;23.382;2023-07-09T08:09:25;94634.16;;;28.09;41.06
7768;BME280;3928;42.626;23.382;2023-07-09T08:11:52;94626.56;;;28.16;41.06
7768;BME280;3928;42.626;23.382;2023-07-09T08:14:20;94628.44;;;28.47;40.31
7768;BME280;3928;42.626;23.382;2023-07-09T08:16:48;94621.75;;;28.64;38.36
7768;BME280;3928;42.626;23.382;2023-07-09T08:19:19;94624.03;;;28.69;37.81
7768;BME280;3928;42.626;23.382;2023-07-09T08:21:46;94621.19;;;28.61;37.48
7768;BME280;3928;42.626;23.382;2023-07-09T08:24:13;94615.34;;;28.78;37.18
7768;BME280;3928;42.626;23.382;2023-07-09T08:26:40;94618.84;;;28.78;36.46
7768;BME280;3928;42.626;23.382;2023-07-09T08:29:07;94616.13;;;28.69;35.95
7768;BME280;3928;42.626;23.382;2023-07-09T08:31:37;94610.38;;;28.84;36.88
7768;BME280;3928;42.626;23.382;2023-07-09T08:34:05;94607.22;;;29.02;38.92
7768;BME280;3928;42.626;23.382;2023-07-09T08:36:32;94615.84;;;29.25;38.36
7768;BME280;3928;42.626;23.382;2023-07-09T08:39:01;94611.41;;;29.35;36.23
7768;BME280;3928;42.626;23.382;2023-07-09T08:41:42;94620.47;;;29.53;36.40
7768;BME280;3928;42.626;23.382;2023-07-09T08:44:22;94611.63;;;29.74;37.18
7768;BME280;3928;42.626;23.382;2023-07-09T08:47:05;94618.91;;;29.91;36.26
7768;BME280;3928;42.626;23.382;2023-07-09T08:49:41;94620.16;;;29.87;34.65
7768;BME280;3928;42.626;23.382;2023-07-09T08:52:17;94601.56;;;29.67;34.50
7768;BME280;3928;42.626;23.382;2023-07-09T08:54:48;94616.06;;;29.63;35.30
7768;BME280;3928;42.626;23.382;2023-07-09T08:57:22;94611.63;;;29.74;35.29
7768;BME280;3928;42.626;23.382;2023-07-09T08:59:51;94612.13;;;29.98;36.81
7768;BME280;3928;42.626;23.382;2023-07-09T09:02:29;94614.59;;;30.20;36.72
7768;BME280;3928;42.626;23.382;2023-07-09T09:04:58;94606.94;;;30.37;35.21
7768;BME280;3928;42.626;23.382;2023-07-09T09:07:34;94606.22;;;30.54;36.49
7768;BME280;3928;42.626;23.382;2023-07-09T09:10:05;94626.88;;;30.50;35.88
7768;BME280;3928;42.626;23.382;2023-07-09T09:12:37;94619.09;;;30.78;35.86
7768;BME280;3928;42.626;23.382;2023-07-09T09:15:13;94616.72;;;30.94;35.04
7768;BME280;3928;42.626;23.382;2023-07-09T09:17:42;94599.84;;;30.95;34.22
7768;BME280;3928;42.626;23.382;2023-07-09T09:20:13;94614.63;;;31.07;35.07
7768;BME280;3928;42.626;23.382;2023-07-09T09:22:46;94603.72;;;31.01;34.30
7768;BME280;3928;42.626;23.382;2023-07-09T09:25:21;94600.16;;;30.82;34.53
7768;BME280;3928;42.626;23.382;2023-07-09T09:27:49;94605.84;;;30.88;34.98
7768;BME280;3928;42.626;23.382;2023-07-09T09:30:19;94607.09;;;31.03;35.36
7768;BME280;3928;42.626;23.382;2023-07-09T09:32:51;94605.69;;;31.28;34.93
7768;BME280;3928;42.626;23.382;2023-07-09T09:35:20;94611.25;;;31.34;34.36
7768;BME280;3928;42.626;23.382;2023-07-09T09:37:52;94609.00;;;31.39;33.80
7768;BME280;3928;42.626;23.382;2023-07-09T09:40:19;94606.06;;;31.42;34.23
7768;BME280;3928;42.626;23.382;2023-07-09T09:42:48;94602.28;;;31.35;34.53
7768;BME280;3928;42.626;23.382;2023-07-09T09:45:17;94609.03;;;31.20;33.56
7768;BME280;3928;42.626;23.382;2023-07-09T09:47:45;94594.16;;;30.71;33.99
7768;BME280;3928;42.626;23.382;2023-07-09T09:50:16;94602.66;;;30.94;34.43
7768;BME280;3928;42.626;23.382;2023-07-09T09:52:43;94602.34;;;31.16;34.43
7768;BME280;3928;42.626;23.382;2023-07-09T09:55:14;94589.06;;;31.16;33.67
7768;BME280;3928;42.626;23.382;2023-07-09T09:57:48;94597.00;;;31.35;33.51
7768;BME280;3928;42.626;23.382;2023-07-09T10:00:16;94595.63;;;31.31;33.28
7768;BME280;3928;42.626;23.382;2023-07-09T10:02:44;94602.44;;;31.34;34.05
7768;BME280;3928;42.626;23.382;2023-07-09T10:05:12;94595.56;;;31.51;32.36
7768;BME280;3928;42.626;23.382;2023-07-09T10:07:43;94590.13;;;31.42;33.38
7768;BME280;3928;42.626;23.382;2023-07-09T10:10:14;94574.69;;;31.65;33.57
7768;BME280;3928;42.626;23.382;2023-07-09T10:12:46;94584.47;;;32.02;33.08
7768;BME280;3928;42.626;23.382;2023-07-09T10:15:24;94583.69;;;32.37;33.56
7768;BME280;3928;42.626;23.382;2023-07-09T10:17:58;94580.44;;;32.43;31.37
7768;BME280;3928;42.626;23.382;2023-07-09T10:20:34;94578.47;;;32.63;32.39
7768;BME280;3928;42.626;23.382;2023-07-09T10:23:13;94581.41;;;32.78;31.82
7768;BME280;3928;42.626;23.382;2023-07-09T10:25:48;94581.94;;;32.99;31.64
7768;BME280;3928;42.626;23.382;2023-07-09T10:28:35;94576.28;;;32.94;30.49
7768;BME280;3928;42.626;23.382;2023-07-09T10:31:11;94565.09;;;32.73;30.27
7768;BME280;3928;42.626;23.382;2023-07-09T10:33:49;94574.91;;;32.72;29.89
7768;BME280;3928;42.626;23.382;2023-07-09T10:36:33;94584.50;;;32.83;31.08
7768;BME280;3928;42.626;23.382;2023-07-09T10:39:11;94557.47;;;32.78;30.73
7768;BME280;3928;42.626;23.382;2023-07-09T10:41:42;94557.19;;;32.99;31.21
7768;BME280;3928;42.626;23.382;2023-07-09T10:44:16;94562.50;;;33.25;29.79
7768;BME280;3928;42.626;23.382;2023-07-09T10:46:50;94576.19;;;33.30;28.80
7768;BME280;3928;42.626;23.382;2023-07-09T10:49:21;94559.94;;;33.15;28.99
7768;BME280;3928;42.626;23.382;2023-07-09T10:51:51;94570.00;;;33.03;28.33
7768;BME280;3928;42.626;23.382;2023-07-09T10:54:26;94563.75;;;32.69;29.93
7768;BME280;3928;42.626;23.382;2023-07-09T10:57:00;94565.03;;;32.82;30.52
7768;BME280;3928;42.626;23.382;2023-07-09T10:59:31;94566.31;;;32.96;29.70
7768;BME280;3928;42.626;23.382;2023-07-09T11:02:04;94561.22;;;33.29;29.63
7768;BME280;3928;42.626;23.382;2023-07-09T11:04:42;94562.47;;;33.42;28.24
7768;BME280;3928;42.626;23.382;2023-07-09T11:07:14;94558.50;;;33.21;28.89
7768;BME280;3928;42.626;23.382;2023-07-09T11:09:45;94562.09;;;33.11;29.11
7768;BME280;3928;42.626;23.382;2023-07-09T11:12:15;94556.88;;;33.28;28.89
7768;BME280;3928;42.626;23.382;2023-07-09T11:14:48;94564.00;;;33.45;28.69
7768;BME280;3928;42.626;23.382;2023-07-09T11:17:19;94569.81;;;33.49;28.46
7768;BME280;3928;42.626;23.382;2023-07-09T11:19:48;94563.50;;;33.24;26.88
7768;BME280;3928;42.626;23.382;2023-07-09T11:22:21;94558.66;;;33.19;27.91
7768;BME280;3928;42.626;23.382;2023-07-09T11:24:52;94560.06;;;33.31;28.87
7768;BME280;3928;42.626;23.382;2023-07-09T11:27:24;94561.28;;;33.37;28.73
7768;BME280;3928;42.626;23.382;2023-07-09T11:29:57;94564.22;;;33.52;27.86
7768;BME280;3928;42.626;23.382;2023-07-09T11:32:26;94555.91;;;33.29;26.64
7768;BME280;3928;42.626;23.382;2023-07-09T11:34:54;94566.22;;;33.32;26.68
7768;BME280;3928;42.626;23.382;2023-07-09T11:37:25;94557.66;;;33.46;26.56
7768;BME280;3928;42.626;23.382;2023-07-09T11:39:54;94558.41;;;33.04;27.46
7768;BME280;3928;42.626;23.382;2023-07-09T11:42:31;94548.16;;;32.92;26.62
7768;BME280;3928;42.626;23.382;2023-07-09T11:45:06;94552.75;;;33.07;27.39
7768;BME280;3928;42.626;23.382;2023-07-09T11:47:37;94552.91;;;33.06;26.92
7768;BME280;3928;42.626;23.382;2023-07-09T11:50:19;94509.47;;;32.97;27.55
7768;BME280;3928;42.626;23.382;2023-07-09T11:52:51;94551.56;;;33.54;28.38
7768;BME280;3928;42.626;23.382;2023-07-09T11:55:28;94542.66;;;33.71;27.38
7768;BME280;3928;42.626;23.382;2023-07-09T11:57:56;94543.19;;;33.75;26.51
7768;BME280;3928;42.626;23.382;2023-07-09T12:00:23;94553.22;;;33.29;26.72
7768;BME280;3928;42.626;23.382;2023-07-09T12:02:50;94547.28;;;33.35;26.07
7768;BME280;3928;42.626;23.382;2023-07-09T12:05:26;94546.97;;;33.12;25.47
7768;BME280;3928;42.626;23.382;2023-07-09T12:07:53;94546.56;;;32.81;26.92
7768;BME280;3928;42.626;23.382;2023-07-09T12:10:22;94538.00;;;32.69;27.49
7768;BME280;3928;42.626;23.382;2023-07-09T12:12:55;94538.59;;;32.81;27.77
7768;BME280;3928;42.626;23.382;2023-07-09T12:15:24;94533.66;;;32.86;28.19
7768;BME280;3928;42.626;23.382;2023-07-09T12:17:59;94526.16;;;33.07;28.34
7768;BME280;3928;42.626;23.382;2023-07-09T12:20:29;94540.53;;;32.79;28.55
7768;BME280;3928;42.626;23.382;2023-07-09T12:22:57;94538.75;;;32.62;29.67
7768;BME280;3928;42.626;23.382;2023-07-09T12:25:25;94532.84;;;32.50;30.45
7768;BME280;3928;42.626;23.382;2023-07-09T12:27:54;94537.31;;;32.49;30.35
7768;BME280;3928;42.626;23.382;2023-07-09T12:30:21;94520.81;;;32.64;29.61
7768;BME280;3928;42.626;23.382;2023-07-09T12:32:50;94507.28;;;32.75;29.16
7768;BME280;3928;42.626;23.382;2023-07-09T12:35:18;94525.31;;;32.63;28.63
7768;BME280;3928;42.626;23.382;2023-07-09T12:37:46;94521.06;;;32.52;30.10
7768;BME280;3928;42.626;23.382;2023-07-09T12:40:17;94518.56;;;32.69;28.46
7768;BME280;3928;42.626;23.382;2023-07-09T12:42:45;94528.69;;;32.91;28.51
7768;BME280;3928;42.626;23.382;2023-07-09T12:45:19;94526.50;;;33.12;29.04
7768;BME280;3928;42.626;23.382;2023-07-09T12:47:47;94519.09;;;33.24;29.89
7768;BME280;3928;42.626;23.382;2023-07-09T12:50:19;94516.34;;;33.34;28.51
7768;BME280;3928;42.626;23.382;2023-07-09T12:52:47;94503.19;;;33.32;29.19
7768;BME280;3928;42.626;23.382;2023-07-09T12:55:22;94491.16;;;33.46;30.36
7768;BME280;3928;42.626;23.382;2023-07-09T12:57:49;94502.25;;;33.76;29.21
7768;BME280;3928;42.626;23.382;2023-07-09T13:00:18;94507.38;;;33.35;28.19
7768;BME280;3928;42.626;23.382;2023-07-09T13:02:52;94508.63;;;32.79;29.30
7768;BME280;3928;42.626;23.382;2023-07-09T13:05:22;94523.13;;;32.58;29.58
7768;BME280;3928;42.626;23.382;2023-07-09T13:07:51;94513.84;;;32.27;29.43
7768;BME280;3928;42.626;23.382;2023-07-09T13:10:22;94517.47;;;32.26;29.82
7768;BME280;3928;42.626;23.382;2023-07-09T13:12:52;94487.97;;;32.29;31.25
7768;BME280;3928;42.626;23.382;2023-07-09T13:15:24;94508.84;;;32.60;30.12
7768;BME280;3928;42.626;23.382;2023-07-09T13:17:57;94504.56;;;32.67;30.65
7768;BME280;3928;42.626;23.382;2023-07-09T13:20:25;94514.28;;;32.76;29.91
7768;BME280;3928;42.626;23.382;2023-07-09T13:22:52;94508.38;;;32.82;29.33
7768;BME280;3928;42.626;23.382;2023-07-09T13:25:19;94507.59;;;32.72;28.98
7768;BME280;3928;42.626;23.382;2023-07-09T13:27:46;94520.13;;;32.08;30.12
7768;BME280;3928;42.626;23.382;2023-07-09T13:30:13;94518.22;;;32.00;30.09
7768;BME280;3928;42.626;23.382;2023-07-09T13:32:41;94520.69;;;31.57;30.64
7768;BME280;3928;42.626;23.382;2023-07-09T13:35:13;94520.38;;;31.60;32.19
7768;BME280;3928;42.626;23.382;2023-07-09T13:37:42;94511.22;;;31.72;31.97
7768;BME280;3928;42.626;23.382;2023-07-09T13:40:11;94510.38;;;31.81;31.40
7768;BME280;3928;42.626;23.382;2023-07-09T13:42:38;94510.41;;;31.71;31.43
7768;BME280;3928;42.626;23.382;2023-07-09T13:45:16;94516.53;;;31.72;31.59
7768;BME280;3928;42.626;23.382;2023-07-09T13:47:45;94515.69;;;31.81;31.30
7768;BME280;3928;42.626;23.382;2023-07-09T13:50:12;94522.34;;;31.58;32.04
7768;BME280;3928;42.626;23.382;2023-07-09T13:52:40;94521.03;;;30.88;33.05
7768;BME280;3928;42.626;23.382;2023-07-09T13:55:15;94523.41;;;30.91;33.98
7768;BME280;3928;42.626;23.382;2023-07-09T13:57:43;94519.16;;;31.17;33.28
7768;BME280;3928;42.626;23.382;2023-07-09T14:00:11;94516.88;;;31.32;32.74
7768;BME280;3928;42.626;23.382;2023-07-09T14:02:38;94381.69;;;30.38;32.11
7768;BME280;3928;42.626;23.382;2023-07-09T14:05:09;94525.66;;;31.42;33.24
7768;BME280;3928;42.626;23.382;2023-07-09T14:07:38;94521.38;;;31.59;33.41
7768;BME280;3928;42.626;23.382;2023-07-09T14:10:09;94533.25;;;31.55;33.09
7768;BME280;3928;42.626;23.382;2023-07-09T14:12:39;94529.81;;;31.45;32.52
7768;BME280;3928;42.626;23.382;2023-07-09T14:15:12;94536.97;;;31.34;31.92
7768;BME280;3928;42.626;23.382;2023-07-09T14:17:39;94532.25;;;31.19;32.90
7768;BME280;3928;42.626;23.382;2023-07-09T14:20:11;94526.50;;;30.76;32.87
7768;BME280;3928;42.626;23.382;2023-07-09T14:22:39;94533.88;;;30.53;33.24
7768;BME280;3928;42.626;23.382;2023-07-09T14:25:14;94515.34;;;30.53;33.62
7768;BME280;3928;42.626;23.382;2023-07-09T14:27:41;94475.22;;;30.39;33.66
7768;BME280;3928;42.626;23.382;2023-07-09T14:30:13;94519.81;;;30.72;34.82
7768;BME280;3928;42.626;23.382;2023-07-09T14:32:41;94528.47;;;30.74;33.85
7768;BME280;3928;42.626;23.382;2023-07-09T14:35:13;94514.78;;;30.60;34.83
7768;BME280;3928;42.626;23.382;2023-07-09T14:37:42;94519.78;;;30.53;34.20
7768;BME280;3928;42.626;23.382;2023-07-09T14:40:11;94508.66;;;30.40;34.45
7768;BME280;3928;42.626;23.382;2023-07-09T14:42:38;94517.59;;;30.39;34.33
7768;BME280;3928;42.626;23.382;2023-07-09T14:45:16;94532.50;;;30.20;34.53
7768;BME280;3928;42.626;23.382;2023-07-09T14:47:43;94523.50;;;29.83;34.75
7768;BME280;3928;42.626;23.382;2023-07-09T14:50:11;94527.22;;;29.61;35.10
7768;BME280;3928;42.626;23.382;2023-07-09T14:52:39;94514.88;;;29.40;35.59
7768;BME280;3928;42.626;23.382;2023-07-09T14:55:15;94519.19;;;29.41;36.15
7768;BME280;3928;42.626;23.382;2023-07-09T14:57:42;94521.13;;;29.39;36.49
7768;BME280;3928;42.626;23.382;2023-07-09T15:00:14;94523.72;;;29.30;35.23
7768;BME280;3928;42.626;23.382;2023-07-09T15:02:42;94515.91;;;29.19;35.06
7768;BME280;3928;42.626;23.382;2023-07-09T15:05:14;94530.50;;;29.13;34.69
7768;BME280;3928;42.626;23.382;2023-07-09T15:07:42;94535.78;;;29.13;35.99
7768;BME280;3928;42.626;23.382;2023-07-09T15:10:13;94530.56;;;29.02;34.47